Alto Anahuac, Mexico

8:55 PM CDT on July 23, 2017 (GMT -0500)
Laredo International | | Change Station

Elev 505 ft 27.54 °N, 99.46 °W | Updated 59 minutes ago

Clear
Clear
101 °F
Feels Like 102 °F
N
14
Wind Variable Wind from ESE

Today
High -- | Low -- °F
--% Chance of Precip.
Yesterday
High -- | Low -- °F
Precip. -- in
Pressure 29.81 in
Visibility 10.0 miles
Clouds Clear
Heat Index 102 °F
Dew Point 61 °F
Humidity 27%
Rainfall 0.00 in
Snow Depth Not available.
6:58 AM 8:33 PM
New Moon, 1% visible
METAR KLRD 240056Z AUTO 11012KT 10SM CLR 38/16 A2981 RMK AO2 SLP092 T03830161 $
Pressure 29.81 in
Visibility 10.0 miles
Clouds Clear
Heat Index 102 °F
Dew Point 61 °F
Humidity 27%
Rainfall 0.00 in
Snow Depth Not available.
6:58 AM 8:33 PM
New Moon, 1% visible
METAR KLRD 240056Z AUTO 11012KT 10SM CLR 38/16 A2981 RMK AO2 SLP092 T03830161 $

Get Severe Weather Alerts

Thanks for signing up!

Be on the lookout for a verification email in your inbox.

You'll start receiving the daily forecast at 6 AM.

×

10-Day Weather Forecast

No radar image for this location.
×

Almanac

Astronomy

Jul. 23, 2017 Rise Set
Actual Time
Civil Twilight
Nautical Twilight
Astronomical Twilight
Moon
Length of Visible Light
Length of Day
Tomorrow will be .
, % of the Moon is Illuminated

Today's Extremes

Country Highs Country Lows

Community

WunderPhotos

Category 6

Welcome to Category 6. This is the collective home for Weather Underground's featured writeups by Dr. Jeff Masters (right), Bob Henson (left), Chris Burt, and other regular contributors.

Nearby

Air Quality

  Air Quality AQ Index Pollutant
Not available.

Snow Depth

Station Depth Elevation

Earthquake Activity

City Distance Mag. Time & Date
Minimum magnitude displayed is 2.5.

Coastal Water Temperatures

Place Temperature

Stations

Nearby Weather Stations

Station Location Temp. Windchill Dew Point Humidity Wind Precip. Elev Updated Type